createdAt,value
2022-08-14T00:01:11.508Z,100.00
2022-08-14T00:05:18.153Z,100.00
2022-08-14T00:09:19.690Z,100.00
2022-08-14T00:13:24.883Z,100.00
2022-08-14T00:17:26.808Z,100.00
2022-08-14T00:21:30.954Z,100.00
2022-08-14T00:25:42.378Z,100.00
2022-08-14T00:29:44.184Z,100.00
2022-08-14T00:33:51.516Z,100.00
2022-08-14T00:37:54.614Z,100.00
2022-08-14T00:41:57.662Z,100.00
2022-08-14T00:46:08.171Z,100.00
2022-08-14T00:50:24.745Z,100.00
2022-08-14T00:54:27.448Z,100.00
2022-08-14T00:58:32.948Z,100.00
2022-08-14T01:02:36.414Z,100.00
2022-08-14T01:06:39.253Z,100.00
2022-08-14T01:10:53.412Z,100.00
2022-08-14T01:14:58.204Z,100.00
2022-08-14T01:19:19.594Z,100.00
2022-08-14T01:23:21.675Z,100.00
2022-08-14T01:27:25.002Z,100.00
2022-08-14T01:31:30.489Z,100.00
2022-08-14T01:35:32.193Z,100.00
2022-08-14T01:39:51.462Z,100.00
2022-08-14T01:44:00.996Z,100.00
2022-08-14T01:48:03.036Z,100.00
2022-08-14T01:52:08.971Z,100.00
2022-08-14T01:56:20.788Z,100.00
2022-08-14T02:00:22.462Z,100.00
2022-08-14T02:04:55.095Z,100.00
2022-08-14T02:08:56.531Z,100.00
2022-08-14T02:12:59.439Z,100.00
2022-08-14T02:17:02.237Z,100.00
2022-08-14T02:21:04.865Z,100.00
2022-08-14T02:25:06.879Z,100.00
2022-08-14T02:29:11.727Z,100.00
2022-08-14T02:33:13.323Z,100.00
2022-08-14T02:37:15.952Z,100.00
2022-08-14T02:41:17.441Z,100.00
2022-08-14T02:45:22.226Z,100.00
2022-08-14T02:49:34.295Z,100.00
2022-08-14T02:53:39.749Z,100.00
2022-08-14T02:57:44.304Z,100.00
2022-08-14T03:01:51.239Z,100.00
2022-08-14T03:05:56.390Z,100.00
2022-08-14T03:10:26.538Z,100.00
2022-08-14T03:14:21.450Z,100.00
2022-08-14T03:18:31.563Z,100.00
2022-08-14T03:22:33.929Z,100.00
2022-08-14T03:26:36.549Z,100.00
2022-08-14T03:30:41.391Z,100.00
2022-08-14T03:34:48.524Z,100.00
2022-08-14T03:39:16.002Z,100.00
2022-08-14T03:43:19.329Z,100.00
2022-08-14T03:47:20.799Z,100.00
2022-08-14T03:51:26.922Z,100.00
2022-08-14T03:55:30.394Z,100.00
2022-08-14T03:59:33.068Z,100.00
2022-08-14T04:03:37.339Z,100.00
2022-08-14T04:07:39.191Z,100.00
2022-08-14T04:11:51.052Z,100.00
2022-08-14T04:15:56.621Z,100.00
2022-08-14T04:20:05.997Z,100.00
2022-08-14T04:24:07.521Z,100.00
2022-08-14T04:28:58.794Z,100.00
2022-08-14T04:32:57.527Z,100.00
2022-08-14T04:37:22.218Z,100.00
2022-08-14T04:41:45.253Z,100.00
2022-08-14T04:45:51.348Z,100.00
2022-08-14T04:49:57.091Z,100.00
2022-08-14T04:54:00.581Z,100.00
2022-08-14T04:58:05.402Z,100.00
2022-08-14T05:02:08.168Z,100.00
2022-08-14T05:06:37.614Z,100.00
2022-08-14T05:10:32.915Z,100.00
2022-08-14T05:14:46.478Z,100.00
2022-08-14T05:19:18.036Z,100.00
2022-08-14T05:23:19.506Z,100.00
2022-08-14T05:27:22.969Z,100.00
2022-08-14T05:31:25.211Z,100.00
2022-08-14T05:35:42.416Z,100.00
2022-08-14T05:39:44.268Z,100.00
2022-08-14T05:43:48.009Z,100.00
2022-08-14T05:47:52.496Z,100.00
2022-08-14T05:51:53.903Z,100.00
2022-08-14T05:55:56.130Z,100.00
2022-08-14T05:59:57.625Z,100.00
2022-08-14T06:04:01.828Z,100.00
2022-08-14T06:08:21.843Z,100.00
2022-08-14T06:12:56.282Z,100.00
2022-08-14T06:16:57.473Z,100.00
2022-08-14T06:20:59.662Z,100.00
2022-08-14T06:25:01.180Z,100.00
2022-08-14T06:29:03.081Z,100.00
2022-08-14T06:33:06.831Z,100.00
2022-08-14T06:37:08.438Z,100.00
2022-08-14T06:41:11.034Z,100.00
2022-08-14T06:45:12.541Z,100.00
2022-08-14T06:49:16.590Z,100.00
2022-08-14T06:53:19.808Z,100.00
2022-08-14T06:57:21.681Z,100.00
2022-08-14T07:01:41.799Z,100.00
2022-08-14T07:05:55.752Z,100.00
2022-08-14T07:10:00.663Z,99.65
2022-08-14T07:14:02.609Z,96.89
2022-08-14T07:18:08.792Z,97.16
2022-08-14T07:22:17.578Z,92.77
2022-08-14T07:26:22.124Z,91.34
2022-08-14T07:30:34.134Z,94.38
2022-08-14T07:34:41.231Z,89.03
2022-08-14T07:38:43.416Z,88.72
2022-08-14T07:42:54.217Z,86.19
2022-08-14T07:46:55.757Z,85.85
2022-08-14T07:51:00.714Z,86.42
2022-08-14T07:55:06.407Z,82.39
2022-08-14T07:59:09.028Z,82.30
2022-08-14T08:03:12.115Z,82.36
2022-08-14T08:07:15.448Z,79.67
2022-08-14T08:11:19.512Z,77.91
2022-08-14T08:15:23.023Z,75.06
2022-08-14T08:19:25.390Z,74.01
2022-08-14T08:23:30.316Z,71.10
2022-08-14T08:27:44.884Z,71.13
2022-08-14T08:31:52.250Z,66.87
2022-08-14T08:35:58.260Z,65.53
2022-08-14T08:40:05.891Z,66.03
2022-08-14T08:44:17.244Z,64.29
2022-08-14T08:48:36.570Z,62.14
2022-08-14T08:52:51.143Z,62.36
2022-08-14T08:56:57.459Z,60.88
2022-08-14T09:01:00.578Z,59.21
2022-08-14T09:05:03.866Z,57.77
2022-08-14T09:09:27.085Z,56.71
2022-08-14T09:13:37.938Z,56.82
2022-08-14T09:17:43.338Z,54.19
2022-08-14T09:21:47.446Z,56.63
2022-08-14T09:25:59.018Z,54.92
2022-08-14T09:30:30.761Z,55.65
2022-08-14T09:34:58.128Z,54.12
2022-08-14T09:39:22.871Z,54.84
2022-08-14T09:43:48.888Z,55.47
2022-08-14T09:47:53.522Z,52.61
2022-08-14T09:52:04.224Z,50.02
2022-08-14T09:56:30.953Z,50.77
2022-08-14T10:00:43.932Z,49.36
2022-08-14T10:04:50.032Z,48.59
2022-08-14T10:08:57.971Z,47.59
2022-08-14T10:13:01.351Z,47.28
2022-08-14T10:17:06.247Z,45.80
2022-08-14T10:21:16.224Z,45.05
2022-08-14T10:25:18.055Z,44.01
2022-08-14T10:29:34.575Z,43.15
2022-08-14T10:33:37.569Z,41.32
2022-08-14T10:37:44.240Z,40.47
2022-08-14T10:41:49.274Z,39.28
2022-08-14T10:46:04.015Z,38.13
2022-08-14T10:50:38.852Z,37.03
2022-08-14T10:54:47.457Z,36.88
2022-08-14T10:58:49.106Z,37.80
2022-08-14T11:03:00.275Z,36.12
2022-08-14T11:07:02.220Z,36.47
2022-08-14T11:11:07.516Z,36.90
2022-08-14T11:15:10.268Z,35.90
2022-08-14T11:19:13.482Z,36.09
2022-08-14T11:23:15.400Z,36.18
2022-08-14T11:27:20.016Z,36.79
2022-08-14T11:31:23.955Z,35.61
2022-08-14T11:35:44.024Z,34.66
2022-08-14T11:39:49.254Z,35.31
2022-08-14T11:43:58.566Z,34.45
2022-08-14T11:49:03.131Z,32.76
2022-08-14T11:52:40.248Z,33.58
2022-08-14T11:56:42.234Z,31.00
2022-08-14T12:01:02.503Z,32.55
2022-08-14T12:05:04.602Z,30.96
2022-08-14T12:09:15.140Z,32.03
2022-08-14T12:13:19.147Z,32.49
2022-08-14T12:17:25.510Z,32.61
2022-08-14T12:21:29.517Z,31.84
2022-08-14T12:25:35.378Z,33.27
2022-08-14T12:29:36.842Z,32.84
2022-08-14T12:33:47.020Z,33.21
2022-08-14T12:37:55.072Z,32.92
2022-08-14T12:42:01.521Z,30.59
2022-08-14T12:46:02.971Z,31.51
2022-08-14T12:50:06.852Z,33.41
2022-08-14T12:54:28.165Z,31.51
2022-08-14T12:58:38.068Z,32.86
2022-08-14T13:02:55.815Z,34.50
2022-08-14T13:07:08.830Z,34.45
2022-08-14T13:11:14.876Z,33.75
2022-08-14T13:15:19.512Z,31.74
2022-08-14T13:19:24.335Z,31.72
2022-08-14T13:23:33.255Z,31.04
2022-08-14T13:27:38.546Z,31.98
2022-08-14T13:31:45.587Z,31.58
2022-08-14T13:35:50.331Z,29.64
2022-08-14T13:39:56.566Z,29.88
2022-08-14T13:44:00.653Z,27.13
2022-08-14T13:48:02.516Z,26.32
2022-08-14T13:52:48.206Z,26.99
2022-08-14T13:56:36.693Z,26.75
2022-08-14T14:00:53.138Z,26.18
2022-08-14T14:05:00.761Z,25.07
2022-08-14T14:09:03.644Z,26.09
2022-08-14T14:13:05.789Z,25.46
2022-08-14T14:17:08.818Z,24.40
2022-08-14T14:21:13.682Z,24.34
2022-08-14T14:25:19.565Z,25.15
2022-08-14T14:29:26.430Z,24.03
2022-08-14T14:33:49.555Z,25.18
2022-08-14T14:37:51.964Z,22.89
2022-08-14T14:41:56.807Z,23.21
2022-08-14T14:45:58.644Z,22.24
2022-08-14T14:50:03.781Z,21.62
2022-08-14T14:54:08.294Z,21.59
2022-08-14T14:58:10.301Z,21.08
2022-08-14T15:02:38.131Z,22.08
2022-08-14T15:06:47.578Z,21.55
2022-08-14T15:10:49.549Z,22.03
2022-08-14T15:14:58.059Z,21.57
2022-08-14T15:19:11.595Z,21.09
2022-08-14T15:23:16.161Z,22.66
2022-08-14T15:27:26.136Z,21.33
2022-08-14T15:31:28.231Z,21.88
2022-08-14T15:35:33.941Z,22.53
2022-08-14T15:39:38.451Z,22.65
2022-08-14T15:43:42.691Z,23.79
2022-08-14T15:47:47.190Z,23.11
2022-08-14T15:51:58.033Z,23.95
2022-08-14T15:55:59.632Z,22.91
2022-08-14T16:00:40.837Z,23.85
2022-08-14T16:04:41.306Z,24.24
2022-08-14T16:08:44.760Z,24.87
2022-08-14T16:12:47.884Z,26.16
2022-08-14T16:17:00.321Z,26.61
2022-08-14T16:21:17.162Z,26.38
2022-08-14T16:25:21.256Z,26.35
2022-08-14T16:29:41.898Z,26.77
2022-08-14T16:33:59.131Z,26.46
2022-08-14T16:38:03.344Z,26.96
2022-08-14T16:42:38.625Z,26.35
2022-08-14T16:46:45.600Z,25.20
2022-08-14T16:50:50.370Z,24.01
2022-08-14T16:54:51.953Z,24.53
2022-08-14T16:59:08.326Z,25.75
2022-08-14T17:03:11.775Z,24.39
2022-08-14T17:07:15.281Z,24.83
2022-08-14T17:11:16.750Z,24.42
2022-08-14T17:15:19.815Z,24.64
2022-08-14T17:19:22.448Z,26.12
2022-08-14T17:23:29.926Z,25.96
2022-08-14T17:27:32.359Z,28.10
2022-08-14T17:31:58.727Z,27.40
2022-08-14T17:36:20.189Z,30.20
2022-08-14T17:40:29.457Z,31.29
2022-08-14T17:44:45.799Z,31.80
2022-08-14T17:49:16.303Z,33.11
2022-08-14T17:53:09.561Z,33.03
2022-08-14T17:57:14.926Z,34.08
2022-08-14T18:01:23.678Z,33.72
2022-08-14T18:06:09.413Z,35.35
2022-08-14T18:09:58.657Z,36.42
2022-08-14T18:14:01.728Z,37.29
2022-08-14T18:18:06.660Z,37.07
2022-08-14T18:22:23.915Z,38.39
2022-08-14T18:26:37.008Z,39.17
2022-08-14T18:30:40.558Z,39.51
2022-08-14T18:35:11.408Z,42.80
2022-08-14T18:39:26.365Z,44.38
2022-08-14T18:43:44.268Z,46.49
2022-08-14T18:48:14.875Z,47.14
2022-08-14T18:52:18.616Z,48.62
2022-08-14T18:57:09.924Z,48.91
2022-08-14T19:01:22.931Z,49.13
2022-08-14T19:05:37.726Z,49.52
2022-08-14T19:10:00.865Z,50.44
2022-08-14T19:14:05.272Z,50.30
2022-08-14T19:18:28.411Z,49.96
2022-08-14T19:22:32.381Z,49.74
2022-08-14T19:26:52.002Z,50.65
2022-08-14T19:31:42.003Z,50.86
2022-08-14T19:35:55.026Z,52.41
2022-08-14T19:39:57.773Z,52.26
2022-08-14T19:44:32.052Z,53.03
2022-08-14T19:48:34.003Z,53.43
2022-08-14T19:52:39.905Z,53.26
2022-08-14T19:56:45.137Z,54.22
2022-08-14T20:00:56.460Z,54.01
2022-08-14T20:05:04.300Z,53.99
2022-08-14T20:11:05.841Z,54.48
2022-08-14T20:13:33.351Z,54.69
2022-08-14T20:17:40.334Z,54.74
2022-08-14T20:22:34.671Z,55.30
2022-08-14T20:26:30.937Z,56.00
2022-08-14T20:30:36.109Z,56.37
2022-08-14T20:34:38.663Z,57.24
2022-08-14T20:38:59.790Z,56.57
2022-08-14T20:43:20.245Z,56.30
2022-08-14T20:47:26.774Z,55.86
2022-08-14T20:51:58.843Z,57.17
2022-08-14T20:56:30.070Z,58.45
2022-08-14T21:00:52.292Z,59.50
2022-08-14T21:05:34.310Z,59.53
2022-08-14T21:10:05.814Z,59.80
2022-08-14T21:14:29.283Z,60.11
2022-08-14T21:18:34.519Z,60.45
2022-08-14T21:22:36.870Z,60.34
2022-08-14T21:26:52.835Z,60.00
2022-08-14T21:31:00.137Z,59.84
2022-08-14T21:35:08.236Z,60.10
2022-08-14T21:39:18.483Z,60.92
2022-08-14T21:43:24.033Z,61.20
2022-08-14T21:47:25.498Z,61.69
2022-08-14T21:51:55.904Z,62.99
2022-08-14T21:55:49.490Z,63.07
2022-08-14T21:59:52.792Z,63.43
2022-08-14T22:03:59.307Z,64.38
2022-08-14T22:08:06.774Z,63.63
2022-08-14T22:12:10.033Z,63.64
2022-08-14T22:17:00.613Z,63.85
2022-08-14T22:20:34.083Z,64.47
2022-08-14T22:24:38.721Z,64.88
2022-08-14T22:28:55.851Z,64.53
2022-08-14T22:33:00.069Z,64.38
2022-08-14T22:37:02.276Z,64.90
2022-08-14T22:41:27.634Z,66.46
2022-08-14T22:45:36.361Z,66.53
2022-08-14T22:50:30.302Z,66.84
2022-08-14T22:54:00.861Z,68.03
2022-08-14T22:58:06.227Z,69.13
2022-08-14T23:02:22.253Z,69.36
2022-08-14T23:07:03.305Z,71.25
2022-08-14T23:10:54.034Z,70.14
2022-08-14T23:14:55.909Z,69.15
2022-08-14T23:18:57.373Z,70.56
2022-08-14T23:22:59.661Z,71.58
2022-08-14T23:27:01.193Z,70.83
2022-08-14T23:31:05.680Z,71.23
2022-08-14T23:35:08.305Z,72.24
2022-08-14T23:39:19.091Z,73.12
2022-08-14T23:43:20.893Z,73.62
2022-08-14T23:47:26.091Z,73.17
2022-08-14T23:51:29.132Z,74.76
2022-08-14T23:55:42.030Z,75.52
2022-08-14T23:59:45.157Z,76.12
